sensor_id;sensor_type;location;lat;lon;timestamp;pressure;altitude;pressure_sealevel;temperature;humidity
56681;BME280;42558;52.388;13.390;2023-04-06T00:00:41;101689.31;;;0.87;93.77
56681;BME280;42558;52.388;13.390;2023-04-06T00:03:10;101688.39;;;0.83;94.40
56681;BME280;42558;52.388;13.390;2023-04-06T00:05:41;101687.43;;;0.79;94.64
56681;BME280;42558;52.388;13.390;2023-04-06T00:08:11;101690.10;;;0.75;94.87
56681;BME280;42558;52.388;13.390;2023-04-06T00:10:41;101688.57;;;0.73;95.38
56681;BME280;42558;52.388;13.390;2023-04-06T00:13:09;101684.39;;;0.67;95.43
56681;BME280;42558;52.388;13.390;2023-04-06T00:15:38;101684.45;;;0.63;95.90
56681;BME280;42558;52.388;13.390;2023-04-06T00:18:06;101684.61;;;0.58;96.05
56681;BME280;42558;52.388;13.390;2023-04-06T00:20:34;101678.02;;;0.55;96.24
56681;BME280;42558;52.388;13.390;2023-04-06T00:23:03;101677.77;;;0.49;96.30
56681;BME280;42558;52.388;13.390;2023-04-06T00:25:31;101674.16;;;0.42;96.83
56681;BME280;42558;52.388;13.390;2023-04-06T00:28:00;101673.27;;;0.37;96.68
56681;BME280;42558;52.388;13.390;2023-04-06T00:30:28;101670.95;;;0.31;97.30
56681;BME280;42558;52.388;13.390;2023-04-06T00:32:56;101675.88;;;0.27;97.14
56681;BME280;42558;52.388;13.390;2023-04-06T00:35:25;101673.30;;;0.22;97.24
56681;BME280;42558;52.388;13.390;2023-04-06T00:37:53;101673.16;;;0.15;97.38
56681;BME280;42558;52.388;13.390;2023-04-06T00:40:22;101677.25;;;0.09;97.68
56681;BME280;42558;52.388;13.390;2023-04-06T00:42:50;101673.48;;;0.05;98.02
56681;BME280;42558;52.388;13.390;2023-04-06T00:45:19;101675.36;;;0.02;98.43
56681;BME280;42558;52.388;13.390;2023-04-06T00:47:47;101672.06;;;-0.00;98.48
56681;BME280;42558;52.388;13.390;2023-04-06T00:50:15;101667.88;;;-0.03;98.69
56681;BME280;42558;52.388;13.390;2023-04-06T00:52:43;101670.16;;;-0.06;98.87
56681;BME280;42558;52.388;13.390;2023-04-06T00:55:11;101669.40;;;-0.09;99.30
56681;BME280;42558;52.388;13.390;2023-04-06T00:57:40;101671.52;;;-0.13;99.31
56681;BME280;42558;52.388;13.390;2023-04-06T01:00:09;101667.63;;;-0.14;99.72
56681;BME280;42558;52.388;13.390;2023-04-06T01:02:37;101671.04;;;-0.15;99.90
56681;BME280;42558;52.388;13.390;2023-04-06T01:05:06;101670.21;;;-0.17;100.00
56681;BME280;42558;52.388;13.390;2023-04-06T01:07:34;101666.70;;;-0.22;99.91
56681;BME280;42558;52.388;13.390;2023-04-06T01:10:03;101666.05;;;-0.27;100.00
56681;BME280;42558;52.388;13.390;2023-04-06T01:12:34;101668.45;;;-0.24;100.00
56681;BME280;42558;52.388;13.390;2023-04-06T01:15:06;101667.37;;;-0.22;100.00
56681;BME280;42558;52.388;13.390;2023-04-06T01:17:36;101667.20;;;-0.20;100.00
56681;BME280;42558;52.388;13.390;2023-04-06T01:20:07;101664.64;;;-0.20;100.00
56681;BME280;42558;52.388;13.390;2023-04-06T01:22:37;101663.69;;;-0.21;100.00
56681;BME280;42558;52.388;13.390;2023-04-06T01:25:06;101667.07;;;-0.24;100.00
56681;BME280;42558;52.388;13.390;2023-04-06T01:27:34;101665.75;;;-0.29;100.00
56681;BME280;42558;52.388;13.390;2023-04-06T01:30:04;101668.00;;;-0.34;100.00
56681;BME280;42558;52.388;13.390;2023-04-06T01:32:33;101668.58;;;-0.35;100.00
56681;BME280;42558;52.388;13.390;2023-04-06T01:35:02;101670.60;;;-0.36;100.00
56681;BME280;42558;52.388;13.390;2023-04-06T01:37:31;101669.33;;;-0.39;100.00
56681;BME280;42558;52.388;13.390;2023-04-06T01:40:07;101672.23;;;-0.44;100.00
56681;BME280;42558;52.388;13.390;2023-04-06T01:42:36;101670.92;;;-0.48;100.00
56681;BME280;42558;52.388;13.390;2023-04-06T01:45:07;101666.92;;;-0.51;100.00
56681;BME280;42558;52.388;13.390;2023-04-06T01:47:37;101667.65;;;-0.52;100.00
56681;BME280;42558;52.388;13.390;2023-04-06T01:50:07;101667.26;;;-0.58;100.00
56681;BME280;42558;52.388;13.390;2023-04-06T01:52:37;101664.48;;;-0.63;100.00
56681;BME280;42558;52.388;13.390;2023-04-06T01:55:07;101666.59;;;-0.69;100.00
56681;BME280;42558;52.388;13.390;2023-04-06T01:57:37;101663.50;;;-0.71;100.00
56681;BME280;42558;52.388;13.390;2023-04-06T02:00:10;101664.71;;;-0.73;100.00
56681;BME280;42558;52.388;13.390;2023-04-06T02:02:43;101661.02;;;-0.77;100.00
56681;BME280;42558;52.388;13.390;2023-04-06T02:05:14;101660.45;;;-0.80;100.00
56681;BME280;42558;52.388;13.390;2023-04-06T02:07:44;101658.65;;;-0.84;100.00
56681;BME280;42558;52.388;13.390;2023-04-06T02:10:15;101654.94;;;-0.89;100.00
56681;BME280;42558;52.388;13.390;2023-04-06T02:12:45;101658.14;;;-0.93;100.00
56681;BME280;42558;52.388;13.390;2023-04-06T02:15:15;101660.61;;;-0.97;100.00
56681;BME280;42558;52.388;13.390;2023-04-06T02:17:45;101658.64;;;-0.98;100.00
56681;BME280;42558;52.388;13.390;2023-04-06T02:20:16;101661.91;;;-1.02;100.00
56681;BME280;42558;52.388;13.390;2023-04-06T02:22:48;101665.00;;;-1.07;100.00
56681;BME280;42558;52.388;13.390;2023-04-06T02:25:19;101663.62;;;-1.12;100.00
56681;BME280;42558;52.388;13.390;2023-04-06T02:27:52;101662.10;;;-1.16;100.00
56681;BME280;42558;52.388;13.390;2023-04-06T02:30:19;101660.60;;;-1.18;100.00
56681;BME280;42558;52.388;13.390;2023-04-06T02:32:49;101660.37;;;-1.16;100.00
56681;BME280;42558;52.388;13.390;2023-04-06T02:35:19;101661.45;;;-1.20;100.00
56681;BME280;42558;52.388;13.390;2023-04-06T02:37:49;101661.59;;;-1.18;100.00
56681;BME280;42558;52.388;13.390;2023-04-06T02:40:20;101659.48;;;-1.25;100.00
56681;BME280;42558;52.388;13.390;2023-04-06T02:42:49;101657.84;;;-1.33;100.00
56681;BME280;42558;52.388;13.390;2023-04-06T02:45:20;101659.84;;;-1.37;100.00
56681;BME280;42558;52.388;13.390;2023-04-06T02:47:50;101661.84;;;-1.38;100.00
56681;BME280;42558;52.388;13.390;2023-04-06T02:50:20;101668.08;;;-1.44;100.00
56681;BME280;42558;52.388;13.390;2023-04-06T02:52:52;101666.63;;;-1.50;100.00
56681;BME280;42558;52.388;13.390;2023-04-06T02:55:22;101663.27;;;-1.53;100.00
56681;BME280;42558;52.388;13.390;2023-04-06T02:57:52;101663.61;;;-1.55;100.00
56681;BME280;42558;52.388;13.390;2023-04-06T03:00:22;101666.02;;;-1.60;100.00
56681;BME280;42558;52.388;13.390;2023-04-06T03:02:52;101665.61;;;-1.63;100.00
56681;BME280;42558;52.388;13.390;2023-04-06T03:05:22;101666.48;;;-1.67;100.00
56681;BME280;42558;52.388;13.390;2023-04-06T03:07:52;101669.75;;;-1.69;100.00
56681;BME280;42558;52.388;13.390;2023-04-06T03:10:22;101667.88;;;-1.74;100.00
56681;BME280;42558;52.388;13.390;2023-04-06T03:12:52;101666.96;;;-1.79;100.00
56681;BME280;42558;52.388;13.390;2023-04-06T03:15:22;101666.89;;;-1.80;100.00
56681;BME280;42558;52.388;13.390;2023-04-06T03:17:52;101668.15;;;-1.83;100.00
56681;BME280;42558;52.388;13.390;2023-04-06T03:20:21;101670.98;;;-1.89;100.00
56681;BME280;42558;52.388;13.390;2023-04-06T03:22:51;101669.94;;;-1.92;100.00
56681;BME280;42558;52.388;13.390;2023-04-06T03:25:21;101669.23;;;-1.92;100.00
56681;BME280;42558;52.388;13.390;2023-04-06T03:27:51;101668.20;;;-1.94;100.00
56681;BME280;42558;52.388;13.390;2023-04-06T03:30:21;101674.02;;;-1.93;100.00
56681;BME280;42558;52.388;13.390;2023-04-06T03:32:51;101673.33;;;-1.94;100.00
56681;BME280;42558;52.388;13.390;2023-04-06T03:35:21;101676.09;;;-1.97;100.00
56681;BME280;42558;52.388;13.390;2023-04-06T03:37:51;101678.36;;;-1.99;100.00
56681;BME280;42558;52.388;13.390;2023-04-06T03:40:21;101679.70;;;-2.01;100.00
56681;BME280;42558;52.388;13.390;2023-04-06T03:42:50;101680.52;;;-2.04;100.00
56681;BME280;42558;52.388;13.390;2023-04-06T03:45:18;101680.08;;;-2.07;100.00
56681;BME280;42558;52.388;13.390;2023-04-06T03:47:46;101682.54;;;-2.13;100.00
56681;BME280;42558;52.388;13.390;2023-04-06T03:50:15;101682.80;;;-2.16;100.00
56681;BME280;42558;52.388;13.390;2023-04-06T03:52:43;101685.48;;;-2.20;100.00
56681;BME280;42558;52.388;13.390;2023-04-06T03:55:11;101691.45;;;-2.20;100.00
56681;BME280;42558;52.388;13.390;2023-04-06T03:57:40;101691.58;;;-2.21;100.00
56681;BME280;42558;52.388;13.390;2023-04-06T04:00:09;101699.23;;;-2.20;100.00
56681;BME280;42558;52.388;13.390;2023-04-06T04:02:37;101704.35;;;-2.21;100.00
56681;BME280;42558;52.388;13.390;2023-04-06T04:05:06;101701.84;;;-2.26;100.00
56681;BME280;42558;52.388;13.390;2023-04-06T04:07:34;101703.63;;;-2.27;100.00
56681;BME280;42558;52.388;13.390;2023-04-06T04:10:03;101705.27;;;-2.28;100.00
56681;BME280;42558;52.388;13.390;2023-04-06T04:12:31;101707.60;;;-2.29;100.00
56681;BME280;42558;52.388;13.390;2023-04-06T04:15:00;101708.32;;;-2.31;100.00
56681;BME280;42558;52.388;13.390;2023-04-06T04:17:28;101708.95;;;-2.34;100.00
56681;BME280;42558;52.388;13.390;2023-04-06T04:19:56;101710.88;;;-2.35;100.00
56681;BME280;42558;52.388;13.390;2023-04-06T04:22:25;101712.96;;;-2.35;100.00
56681;BME280;42558;52.388;13.390;2023-04-06T04:24:56;101713.30;;;-2.35;100.00
56681;BME280;42558;52.388;13.390;2023-04-06T04:27:25;101711.58;;;-2.31;100.00
56681;BME280;42558;52.388;13.390;2023-04-06T04:29:53;101711.54;;;-2.32;100.00
56681;BME280;42558;52.388;13.390;2023-04-06T04:32:22;101714.94;;;-2.32;100.00
56681;BME280;42558;52.388;13.390;2023-04-06T04:34:50;101715.63;;;-2.37;100.00
56681;BME280;42558;52.388;13.390;2023-04-06T04:37:19;101712.26;;;-2.40;100.00
56681;BME280;42558;52.388;13.390;2023-04-06T04:39:47;101715.96;;;-2.41;100.00
56681;BME280;42558;52.388;13.390;2023-04-06T04:42:15;101714.68;;;-2.42;100.00
56681;BME280;42558;52.388;13.390;2023-04-06T04:44:44;101711.55;;;-2.44;100.00
56681;BME280;42558;52.388;13.390;2023-04-06T04:47:12;101710.45;;;-2.48;100.00
56681;BME280;42558;52.388;13.390;2023-04-06T04:49:41;101710.89;;;-2.47;100.00
56681;BME280;42558;52.388;13.390;2023-04-06T04:52:10;101709.67;;;-2.42;100.00
56681;BME280;42558;52.388;13.390;2023-04-06T04:54:38;101711.94;;;-2.40;100.00
56681;BME280;42558;52.388;13.390;2023-04-06T04:57:10;101710.63;;;-2.41;100.00
56681;BME280;42558;52.388;13.390;2023-04-06T04:59:40;101714.92;;;-2.41;100.00
56681;BME280;42558;52.388;13.390;2023-04-06T05:02:10;101717.19;;;-2.38;100.00
56681;BME280;42558;52.388;13.390;2023-04-06T05:04:40;101717.95;;;-2.38;100.00
56681;BME280;42558;52.388;13.390;2023-04-06T05:07:10;101720.73;;;-2.35;100.00
56681;BME280;42558;52.388;13.390;2023-04-06T05:09:40;101719.70;;;-2.31;100.00
56681;BME280;42558;52.388;13.390;2023-04-06T05:12:12;101719.98;;;-2.28;100.00
56681;BME280;42558;52.388;13.390;2023-04-06T05:14:46;101719.20;;;-2.22;100.00
56681;BME280;42558;52.388;13.390;2023-04-06T05:17:16;101719.04;;;-2.20;100.00
56681;BME280;42558;52.388;13.390;2023-04-06T05:19:44;101720.61;;;-2.18;100.00
56681;BME280;42558;52.388;13.390;2023-04-06T05:22:13;101725.27;;;-2.13;100.00
56681;BME280;42558;52.388;13.390;2023-04-06T05:24:44;101725.63;;;-2.06;100.00
56681;BME280;42558;52.388;13.390;2023-04-06T05:27:13;101726.42;;;-1.99;100.00
56681;BME280;42558;52.388;13.390;2023-04-06T05:29:41;101721.86;;;-1.91;100.00
56681;BME280;42558;52.388;13.390;2023-04-06T05:32:09;101722.00;;;-1.84;100.00
56681;BME280;42558;52.388;13.390;2023-04-06T05:34:38;101728.15;;;-1.74;100.00
56681;BME280;42558;52.388;13.390;2023-04-06T05:37:06;101730.29;;;-1.62;100.00
56681;BME280;42558;52.388;13.390;2023-04-06T05:39:35;101732.92;;;-1.57;100.00
56681;BME280;42558;52.388;13.390;2023-04-06T05:42:06;101729.27;;;-1.40;100.00
56681;BME280;42558;52.388;13.390;2023-04-06T05:44:40;101732.91;;;-1.22;100.00
56681;BME280;42558;52.388;13.390;2023-04-06T05:47:10;101735.95;;;-1.14;100.00
56681;BME280;42558;52.388;13.390;2023-04-06T05:49:42;101734.61;;;-1.01;100.00
56681;BME280;42558;52.388;13.390;2023-04-06T05:52:11;101734.99;;;-0.78;100.00
56681;BME280;42558;52.388;13.390;2023-04-06T05:54:40;101737.23;;;-0.55;100.00
56681;BME280;42558;52.388;13.390;2023-04-06T05:57:08;101734.23;;;-0.40;100.00
56681;BME280;42558;52.388;13.390;2023-04-06T05:59:37;101735.73;;;-0.24;100.00
56681;BME280;42558;52.388;13.390;2023-04-06T06:02:05;101734.23;;;-0.08;100.00
56681;BME280;42558;52.388;13.390;2023-04-06T06:04:33;101731.02;;;0.14;100.00
56681;BME280;42558;52.388;13.390;2023-04-06T06:07:02;101733.60;;;0.29;100.00
56681;BME280;42558;52.388;13.390;2023-04-06T06:09:30;101730.84;;;0.44;100.00
56681;BME280;42558;52.388;13.390;2023-04-06T06:12:00;101731.46;;;0.60;100.00
56681;BME280;42558;52.388;13.390;2023-04-06T06:14:30;101734.75;;;0.75;98.89
56681;BME280;42558;52.388;13.390;2023-04-06T06:17:00;101734.86;;;0.87;98.12
56681;BME280;42558;52.388;13.390;2023-04-06T06:19:30;101731.91;;;1.02;97.32
56681;BME280;42558;52.388;13.390;2023-04-06T06:22:00;101728.70;;;1.24;96.05
56681;BME280;42558;52.388;13.390;2023-04-06T06:24:31;101729.15;;;1.44;94.14
56681;BME280;42558;52.388;13.390;2023-04-06T06:27:01;101734.73;;;1.60;92.67
56681;BME280;42558;52.388;13.390;2023-04-06T06:29:31;101731.38;;;1.73;90.60
56681;BME280;42558;52.388;13.390;2023-04-06T06:32:01;101730.27;;;1.91;89.24
56681;BME280;42558;52.388;13.390;2023-04-06T06:34:31;101729.16;;;1.98;87.20
56681;BME280;42558;52.388;13.390;2023-04-06T06:37:01;101729.11;;;2.19;86.97
56681;BME280;42558;52.388;13.390;2023-04-06T06:39:32;101723.90;;;2.35;85.93
56681;BME280;42558;52.388;13.390;2023-04-06T06:42:02;101726.66;;;2.63;85.70
56681;BME280;42558;52.388;13.390;2023-04-06T06:44:32;101724.55;;;2.80;83.78
56681;BME280;42558;52.388;13.390;2023-04-06T06:47:02;101726.27;;;3.03;83.62
56681;BME280;42558;52.388;13.390;2023-04-06T06:49:31;101729.83;;;3.13;82.32
56681;BME280;42558;52.388;13.390;2023-04-06T06:52:02;101728.34;;;3.20;81.65
56681;BME280;42558;52.388;13.390;2023-04-06T06:54:32;101730.25;;;3.44;80.57
56681;BME280;42558;52.388;13.390;2023-04-06T06:57:02;101732.15;;;3.56;79.19
56681;BME280;42558;52.388;13.390;2023-04-06T06:59:32;101727.77;;;3.83;79.01
56681;BME280;42558;52.388;13.390;2023-04-06T07:02:01;101728.58;;;4.22;77.57
56681;BME280;42558;52.388;13.390;2023-04-06T07:04:31;101725.05;;;4.51;75.78
56681;BME280;42558;52.388;13.390;2023-04-06T07:07:01;101725.13;;;4.52;74.75
56681;BME280;42558;52.388;13.390;2023-04-06T07:09:32;101719.81;;;4.90;74.31
56681;BME280;42558;52.388;13.390;2023-04-06T07:12:03;101721.00;;;5.03;72.40
56681;BME280;42558;52.388;13.390;2023-04-06T07:14:33;101724.84;;;4.76;73.15
56681;BME280;42558;52.388;13.390;2023-04-06T07:17:03;101723.63;;;4.89;73.64
56681;BME280;42558;52.388;13.390;2023-04-06T07:19:33;101726.96;;;4.90;73.21
56681;BME280;42558;52.388;13.390;2023-04-06T07:22:03;101728.13;;;4.62;74.06
56681;BME280;42558;52.388;13.390;2023-04-06T07:24:34;101728.61;;;5.19;73.72
56681;BME280;42558;52.388;13.390;2023-04-06T07:27:04;101721.59;;;5.63;71.31
56681;BME280;42558;52.388;13.390;2023-04-06T07:29:34;101726.20;;;5.47;70.93
56681;BME280;42558;52.388;13.390;2023-04-06T07:32:04;101719.02;;;6.00;70.74
56681;BME280;42558;52.388;13.390;2023-04-06T07:34:34;101714.09;;;6.44;68.46
56681;BME280;42558;52.388;13.390;2023-04-06T07:37:04;101712.93;;;6.33;66.07
56681;BME280;42558;52.388;13.390;2023-04-06T07:39:34;101711.77;;;6.78;66.53
56681;BME280;42558;52.388;13.390;2023-04-06T07:42:06;101715.87;;;6.64;66.05
56681;BME280;42558;52.388;13.390;2023-04-06T07:44:39;101713.83;;;6.61;64.43
56681;BME280;42558;52.388;13.390;2023-04-06T07:47:06;101712.42;;;6.61;62.72
56681;BME280;42558;52.388;13.390;2023-04-06T07:49:36;101713.60;;;6.37;62.40
56681;BME280;42558;52.388;13.390;2023-04-06T07:52:06;101713.33;;;6.31;63.11
56681;BME280;42558;52.388;13.390;2023-04-06T07:54:36;101713.63;;;6.34;63.18
56681;BME280;42558;52.388;13.390;2023-04-06T07:57:06;101712.41;;;6.49;62.22
56681;BME280;42558;52.388;13.390;2023-04-06T07:59:36;101713.38;;;6.71;62.26
56681;BME280;42558;52.388;13.390;2023-04-06T08:02:06;101709.30;;;6.93;60.24
56681;BME280;42558;52.388;13.390;2023-04-06T08:04:36;101709.45;;;7.04;60.85
56681;BME280;42558;52.388;13.390;2023-04-06T08:07:06;101703.13;;;7.71;60.36
56681;BME280;42558;52.388;13.390;2023-04-06T08:09:36;101706.37;;;7.31;58.89
56681;BME280;42558;52.388;13.390;2023-04-06T08:12:07;101705.44;;;7.17;57.96
56681;BME280;42558;52.388;13.390;2023-04-06T08:14:40;101702.86;;;7.31;58.76
56681;BME280;42558;52.388;13.390;2023-04-06T08:17:08;101698.23;;;8.16;58.47
56681;BME280;42558;52.388;13.390;2023-04-06T08:19:37;101700.36;;;8.26;55.14
56681;BME280;42558;52.388;13.390;2023-04-06T08:22:07;101702.16;;;7.65;56.86
56681;BME280;42558;52.388;13.390;2023-04-06T08:24:37;101701.05;;;7.76;54.64
56681;BME280;42558;52.388;13.390;2023-04-06T08:27:07;101697.92;;;8.48;55.31
56681;BME280;42558;52.388;13.390;2023-04-06T08:29:37;101693.45;;;8.89;52.01
56681;BME280;42558;52.388;13.390;2023-04-06T08:32:07;101691.38;;;8.42;51.60
56681;BME280;42558;52.388;13.390;2023-04-06T08:34:37;101692.75;;;8.60;50.39
56681;BME280;42558;52.388;13.390;2023-04-06T08:37:07;101694.41;;;8.87;49.85
56681;BME280;42558;52.388;13.390;2023-04-06T08:39:36;101692.79;;;8.66;48.99
56681;BME280;42558;52.388;13.390;2023-04-06T08:42:19;101684.56;;;8.29;49.75
56681;BME280;42558;52.388;13.390;2023-04-06T08:44:49;101683.63;;;9.25;48.28
56681;BME280;42558;52.388;13.390;2023-04-06T08:47:22;101685.05;;;8.70;49.06
56681;BME280;42558;52.388;13.390;2023-04-06T08:49:53;101681.40;;;9.26;48.63
56681;BME280;42558;52.388;13.390;2023-04-06T08:52:26;101680.95;;;10.06;48.38
56681;BME280;42558;52.388;13.390;2023-04-06T08:54:55;101671.88;;;9.74;44.36
56681;BME280;42558;52.388;13.390;2023-04-06T08:57:26;101672.45;;;9.48;45.80
56681;BME280;42558;52.388;13.390;2023-04-06T08:59:56;101673.83;;;9.74;45.69
56681;BME280;42558;52.388;13.390;2023-04-06T09:02:24;101675.94;;;8.90;46.44
56681;BME280;42558;52.388;13.390;2023-04-06T09:04:54;101677.02;;;8.91;45.75
56681;BME280;42558;52.388;13.390;2023-04-06T09:07:24;101671.80;;;9.66;45.60
56681;BME280;42558;52.388;13.390;2023-04-06T09:09:54;101673.80;;;10.07;44.52
56681;BME280;42558;52.388;13.390;2023-04-06T09:12:31;101674.06;;;9.93;43.51
56681;BME280;42558;52.388;13.390;2023-04-06T09:15:00;101677.72;;;9.47;43.32
56681;BME280;42558;52.388;13.390;2023-04-06T09:17:32;101668.30;;;10.05;43.30
56681;BME280;42558;52.388;13.390;2023-04-06T09:20:04;101667.13;;;10.18;43.12
56681;BME280;42558;52.388;13.390;2023-04-06T09:22:40;101664.16;;;10.48;43.31
56681;BME280;42558;52.388;13.390;2023-04-06T09:25:20;101663.39;;;10.30;42.14
56681;BME280;42558;52.388;13.390;2023-04-06T09:28:01;101660.23;;;9.78;41.55
56681;BME280;42558;52.388;13.390;2023-04-06T09:30:31;101654.88;;;9.91;42.11
56681;BME280;42558;52.388;13.390;2023-04-06T09:33:01;101655.83;;;9.99;40.40
56681;BME280;42558;52.388;13.390;2023-04-06T09:35:32;101657.29;;;10.42;41.32
56681;BME280;42558;52.388;13.390;2023-04-06T09:38:11;101652.23;;;10.56;38.98
56681;BME280;42558;52.388;13.390;2023-04-06T09:40:50;101652.39;;;9.74;39.46
56681;BME280;42558;52.388;13.390;2023-04-06T09:43:29;101653.39;;;9.50;41.04
56681;BME280;42558;52.388;13.390;2023-04-06T09:46:00;101653.25;;;10.25;39.63
56681;BME280;42558;52.388;13.390;2023-04-06T09:48:35;101647.83;;;10.37;39.28
56681;BME280;42558;52.388;13.390;2023-04-06T09:51:08;101645.98;;;9.94;40.06
56681;BME280;42558;52.388;13.390;2023-04-06T09:53:44;101643.25;;;10.31;39.26
56681;BME280;42558;52.388;13.390;2023-04-06T09:56:23;101637.13;;;10.14;39.68
56681;BME280;42558;52.388;13.390;2023-04-06T09:59:01;101635.61;;;10.98;39.25
56681;BME280;42558;52.388;13.390;2023-04-06T10:01:34;101629.59;;;10.65;37.82
56681;BME280;42558;52.388;13.390;2023-04-06T10:04:32;101621.45;;;11.75;36.94
56681;BME280;42558;52.388;13.390;2023-04-06T10:07:08;101626.64;;;10.47;37.62
56681;BME280;42558;52.388;13.390;2023-04-06T10:09:44;101631.85;;;10.76;38.60
56681;BME280;42558;52.388;13.390;2023-04-06T10:12:16;101629.84;;;9.83;38.11
56681;BME280;42558;52.388;13.390;2023-04-06T10:14:46;101632.60;;;9.75;38.14
56681;BME280;42558;52.388;13.390;2023-04-06T10:17:17;101627.70;;;10.04;38.55
56681;BME280;42558;52.388;13.390;2023-04-06T10:19:59;101622.06;;;10.66;39.74
56681;BME280;42558;52.388;13.390;2023-04-06T10:25:31;101622.62;;;10.54;38.19
56681;BME280;42558;52.388;13.390;2023-04-06T10:28:07;101626.21;;;10.14;38.98
56681;BME280;42558;52.388;13.390;2023-04-06T10:30:43;101627.55;;;9.90;38.86
56681;BME280;42558;52.388;13.390;2023-04-06T10:33:19;101626.91;;;9.90;40.05
56681;BME280;42558;52.388;13.390;2023-04-06T10:35:49;101618.68;;;10.84;39.45
56681;BME280;42558;52.388;13.390;2023-04-06T10:38:19;101627.27;;;9.18;40.29
56681;BME280;42558;52.388;13.390;2023-04-06T10:40:51;101620.70;;;9.49;40.36
56681;BME280;42558;52.388;13.390;2023-04-06T10:43:22;101621.12;;;9.56;41.15
56681;BME280;42558;52.388;13.390;2023-04-06T10:45:59;101624.72;;;10.11;39.62
56681;BME280;42558;52.388;13.390;2023-04-06T10:48:44;101626.16;;;10.00;38.01
56681;BME280;42558;52.388;13.390;2023-04-06T10:51:18;101612.82;;;10.62;37.19
56681;BME280;42558;52.388;13.390;2023-04-06T10:53:48;101608.69;;;10.92;37.58
56681;BME280;42558;52.388;13.390;2023-04-06T10:56:23;101618.52;;;9.80;36.72
56681;BME280;42558;52.388;13.390;2023-04-06T10:58:55;101612.41;;;9.47;38.64
56681;BME280;42558;52.388;13.390;2023-04-06T11:01:25;101615.83;;;9.84;38.29
56681;BME280;42558;52.388;13.390;2023-04-06T11:03:57;101609.36;;;9.51;38.12
56681;BME280;42558;52.388;13.390;2023-04-06T11:06:31;101604.10;;;10.16;38.80
56681;BME280;42558;52.388;13.390;2023-04-06T11:09:02;101599.88;;;11.35;37.44
56681;BME280;42558;52.388;13.390;2023-04-06T11:11:32;101594.83;;;11.90;35.18
56681;BME280;42558;52.388;13.390;2023-04-06T11:14:01;101605.45;;;11.77;35.53
56681;BME280;42558;52.388;13.390;2023-04-06T11:16:33;101602.84;;;10.43;35.76
56681;BME280;42558;52.388;13.390;2023-04-06T11:19:05;101603.66;;;10.06;35.80
56681;BME280;42558;52.388;13.390;2023-04-06T11:21:43;101591.52;;;10.87;34.74
56681;BME280;42558;52.388;13.390;2023-04-06T11:24:20;101588.48;;;11.36;35.70
56681;BME280;42558;52.388;13.390;2023-04-06T11:26:58;101583.41;;;10.86;35.33
56681;BME280;42558;52.388;13.390;2023-04-06T11:29:31;101585.05;;;10.31;34.38
56681;BME280;42558;52.388;13.390;2023-04-06T11:32:05;101575.88;;;10.89;35.62
56681;BME280;42558;52.388;13.390;2023-04-06T11:34:39;101570.66;;;12.31;34.16
56681;BME280;42558;52.388;13.390;2023-04-06T11:37:11;101568.13;;;12.45;33.40
56681;BME280;42558;52.388;13.390;2023-04-06T11:39:48;101566.34;;;11.44;33.06
56681;BME280;42558;52.388;13.390;2023-04-06T11:42:28;101568.66;;;11.70;33.51
56681;BME280;42558;52.388;13.390;2023-04-06T11:44:59;101567.73;;;11.07;34.54
56681;BME280;42558;52.388;13.390;2023-04-06T11:47:37;101563.07;;;11.40;34.08
56681;BME280;42558;52.388;13.390;2023-04-06T11:50:14;101562.12;;;10.79;34.46
56681;BME280;42558;52.388;13.390;2023-04-06T11:52:42;101561.04;;;11.29;34.70
56681;BME280;42558;52.388;13.390;2023-04-06T11:55:16;101557.65;;;11.20;33.06
56681;BME280;42558;52.388;13.390;2023-04-06T11:57:47;101561.55;;;10.38;34.41
56681;BME280;42558;52.388;13.390;2023-04-06T12:00:17;101557.02;;;11.08;33.88
56681;BME280;42558;52.388;13.390;2023-04-06T12:02:48;101551.77;;;11.16;33.69
56681;BME280;42558;52.388;13.390;2023-04-06T12:05:16;101545.73;;;11.00;33.93
56681;BME280;42558;52.388;13.390;2023-04-06T12:07:44;101544.04;;;10.61;33.58
56681;BME280;42558;52.388;13.390;2023-04-06T12:10:13;101541.23;;;11.56;34.43
56681;BME280;42558;52.388;13.390;2023-04-06T12:12:41;101542.36;;;11.83;33.02
56681;BME280;42558;52.388;13.390;2023-04-06T12:15:10;101537.96;;;11.83;32.91
56681;BME280;42558;52.388;13.390;2023-04-06T12:17:38;101540.20;;;11.56;33.83
56681;BME280;42558;52.388;13.390;2023-04-06T12:20:07;101541.65;;;11.51;33.40
56681;BME280;42558;52.388;13.390;2023-04-06T12:22:53;101541.20;;;11.16;34.24
56681;BME280;42558;52.388;13.390;2023-04-06T12:25:21;101543.02;;;10.77;33.85
56681;BME280;42558;52.388;13.390;2023-04-06T12:27:49;101533.96;;;11.38;34.63
56681;BME280;42558;52.388;13.390;2023-04-06T12:30:18;101530.67;;;11.89;32.93
56681;BME280;42558;52.388;13.390;2023-04-06T12:32:46;101528.46;;;11.13;33.31
56681;BME280;42558;52.388;13.390;2023-04-06T12:35:18;101533.98;;;10.94;33.70
56681;BME280;42558;52.388;13.390;2023-04-06T12:37:46;101531.84;;;10.93;33.94
56681;BME280;42558;52.388;13.390;2023-04-06T12:40:15;101529.97;;;11.03;33.51
56681;BME280;42558;52.388;13.390;2023-04-06T12:42:43;101531.40;;;11.34;33.83
56681;BME280;42558;52.388;13.390;2023-04-06T12:45:14;101526.27;;;11.56;33.10
56681;BME280;42558;52.388;13.390;2023-04-06T12:47:45;101521.05;;;11.44;32.67
56681;BME280;42558;52.388;13.390;2023-04-06T12:50:15;101522.84;;;10.92;33.75
56681;BME280;42558;52.388;13.390;2023-04-06T12:52:45;101522.48;;;10.57;33.24
56681;BME280;42558;52.388;13.390;2023-04-06T12:55:15;101517.05;;;10.92;34.32
56681;BME280;42558;52.388;13.390;2023-04-06T12:57:45;101516.73;;;11.01;33.61
56681;BME280;42558;52.388;13.390;2023-04-06T13:00:15;101517.21;;;10.78;34.06